Water Valley, Texas
Current Conditions -  °F | °C
As of 12:51 PM on Saturday 25 Oct 2014 (Local Time) from KSJT Reporting Station
Clear Clear  
Wind Chill: 29°   Ceiling: Unl
Heat Index: 29°   Visibility: 10mi
Dew Point: 13°   Wind: 13mph
Humidity: 36%   Direction: 200°SSW
Pressure: 30.17"   Gusts: NA
Location:  31.67°N, 100.72°W
Report Text: KSJT 251751Z 20011KT 10SM CLR 29/13 A3017 RMK AO2 SLP194 T02940128 10294 20128 58010
Loading
Personal Weather Stations






























Interactive Weather Map
Tropical Storm Tracking
New forecast layout! Learn more

10-Day Weather Forecast

Advertisements
Track Severe Weather on mobile